createdAt,value
2023-04-28T00:02:19.539Z,25.00
2023-04-28T00:04:47.517Z,20.90
2023-04-28T00:07:14.735Z,17.13
2023-04-28T00:09:42.105Z,17.15
2023-04-28T00:12:09.270Z,22.00
2023-04-28T00:14:36.544Z,21.10
2023-04-28T00:17:06.298Z,19.08
2023-04-28T00:19:34.715Z,22.35
2023-04-28T00:22:01.714Z,31.55
2023-04-28T00:24:29.238Z,24.98
2023-04-28T00:26:57.507Z,22.77
2023-04-28T00:29:24.733Z,23.23
2023-04-28T00:31:51.705Z,21.60
2023-04-28T00:34:19.019Z,22.30
2023-04-28T00:36:45.938Z,25.25
2023-04-28T00:39:13.225Z,23.30
2023-04-28T00:41:40.396Z,23.17
2023-04-28T00:44:07.730Z,25.45
2023-04-28T00:46:34.779Z,25.05
2023-04-28T00:49:04.450Z,24.23
2023-04-28T00:51:33.787Z,27.35
2023-04-28T00:54:01.832Z,20.35
2023-04-28T00:56:31.960Z,20.90
2023-04-28T00:58:59.366Z,25.45
2023-04-28T01:01:26.434Z,23.98
2023-04-28T01:03:54.203Z,17.95
2023-04-28T01:06:22.193Z,20.90
2023-04-28T01:08:53.525Z,24.27
2023-04-28T01:11:20.628Z,22.60
2023-04-28T01:13:48.169Z,26.90
2023-04-28T01:16:15.264Z,21.67
2023-04-28T01:18:48.070Z,27.85
2023-04-28T01:21:15.186Z,24.40
2023-04-28T01:23:45.972Z,22.95
2023-04-28T01:26:12.912Z,25.67
2023-04-28T01:28:40.107Z,20.45
2023-04-28T01:31:07.068Z,16.77
2023-04-28T01:33:34.528Z,23.23
2023-04-28T01:36:01.869Z,22.08
2023-04-28T01:38:29.115Z,20.92
2023-04-28T01:40:56.531Z,19.58
2023-04-28T01:43:24.100Z,18.90
2023-04-28T01:45:51.437Z,17.77
2023-04-28T01:48:18.729Z,21.17
2023-04-28T01:50:45.951Z,17.88
2023-04-28T01:53:14.130Z,19.85
2023-04-28T01:55:41.067Z,22.13
2023-04-28T01:58:08.602Z,21.83
2023-04-28T02:00:35.509Z,21.38
2023-04-28T02:03:02.791Z,22.20
2023-04-28T02:05:30.010Z,20.58
2023-04-28T02:07:57.206Z,26.65
2023-04-28T02:10:24.213Z,15.43
2023-04-28T02:12:51.448Z,17.88
2023-04-28T02:15:18.424Z,20.95
2023-04-28T02:17:45.684Z,28.02
2023-04-28T02:20:14.336Z,18.23
2023-04-28T02:22:41.655Z,14.27
2023-04-28T02:25:09.293Z,18.95
2023-04-28T02:27:36.923Z,18.77
2023-04-28T02:30:05.533Z,16.08
2023-04-28T02:32:32.843Z,20.00
2023-04-28T02:34:59.980Z,19.85
2023-04-28T02:37:27.440Z,16.73
2023-04-28T02:39:54.398Z,22.08
2023-04-28T02:42:21.788Z,22.05
2023-04-28T02:44:48.835Z,24.15
2023-04-28T02:47:16.304Z,21.15
2023-04-28T02:49:43.240Z,23.00
2023-04-28T02:52:10.482Z,24.85
2023-04-28T02:54:37.558Z,16.45
2023-04-28T02:57:04.927Z,18.25
2023-04-28T02:59:31.946Z,26.85
2023-04-28T03:01:59.184Z,22.60
2023-04-28T03:04:26.354Z,18.58
2023-04-28T03:06:53.790Z,21.63
2023-04-28T03:09:20.938Z,16.88
2023-04-28T03:11:48.201Z,17.73
2023-04-28T03:14:15.484Z,17.70
2023-04-28T03:16:43.056Z,17.40
2023-04-28T03:19:10.034Z,18.35
2023-04-28T03:21:37.311Z,15.48
2023-04-28T03:24:05.699Z,17.88
2023-04-28T03:26:33.344Z,29.88
2023-04-28T03:29:00.517Z,19.25
2023-04-28T03:31:28.116Z,17.58
2023-04-28T03:33:55.074Z,22.55
2023-04-28T03:36:22.284Z,18.65
2023-04-28T03:38:49.195Z,22.25
2023-04-28T03:41:16.433Z,18.13
2023-04-28T03:43:43.510Z,17.65
2023-04-28T03:46:10.820Z,18.77
2023-04-28T03:48:37.778Z,18.02
2023-04-28T03:51:05.074Z,16.25
2023-04-28T03:53:32.141Z,16.27
2023-04-28T03:55:59.407Z,18.48
2023-04-28T03:58:26.441Z,16.30
2023-04-28T04:00:54.261Z,15.82
2023-04-28T04:03:23.186Z,16.52
2023-04-28T04:05:51.050Z,17.65
2023-04-28T04:08:18.190Z,16.20
2023-04-28T04:10:45.735Z,19.48
2023-04-28T04:13:12.654Z,18.15
2023-04-28T04:15:39.901Z,15.23
2023-04-28T04:18:07.147Z,18.42
2023-04-28T04:20:34.417Z,26.60
2023-04-28T04:23:02.071Z,18.95
2023-04-28T04:25:30.315Z,26.27
2023-04-28T04:27:57.254Z,21.63
2023-04-28T04:30:24.747Z,26.13
2023-04-28T04:32:51.732Z,21.98
2023-04-28T04:35:19.095Z,25.88
2023-04-28T04:37:46.183Z,20.73
2023-04-28T04:40:13.770Z,30.08
2023-04-28T04:42:40.711Z,17.77
2023-04-28T04:45:08.725Z,20.58
2023-04-28T04:47:35.719Z,22.88
2023-04-28T04:50:03.037Z,26.40
2023-04-28T04:52:30.196Z,22.80
2023-04-28T04:54:57.443Z,20.60
2023-04-28T04:57:24.457Z,20.52
2023-04-28T04:59:51.850Z,28.08
2023-04-28T05:02:18.870Z,27.40
2023-04-28T05:04:46.348Z,31.15
2023-04-28T05:07:13.866Z,22.00
2023-04-28T05:09:41.196Z,25.70
2023-04-28T05:12:08.277Z,30.73
2023-04-28T05:14:35.632Z,26.35
2023-04-28T05:17:02.826Z,24.70
2023-04-28T05:19:30.128Z,26.65
2023-04-28T05:21:57.053Z,24.73
2023-04-28T05:24:24.752Z,21.10
2023-04-28T05:26:52.658Z,21.92
2023-04-28T05:29:21.750Z,25.27
2023-04-28T05:31:48.829Z,27.88
2023-04-28T05:34:16.634Z,23.65
2023-04-28T05:36:44.742Z,19.58
2023-04-28T05:39:11.960Z,19.63
2023-04-28T05:41:38.923Z,22.83
2023-04-28T05:44:06.523Z,18.35
2023-04-28T05:46:33.807Z,25.08
2023-04-28T05:49:01.612Z,18.52
2023-04-28T05:51:28.654Z,18.95
2023-04-28T05:53:55.916Z,19.75
2023-04-28T05:56:22.864Z,16.98
2023-04-28T05:58:50.928Z,18.88
2023-04-28T06:01:18.385Z,17.60
2023-04-28T06:03:45.855Z,14.38
2023-04-28T06:06:13.608Z,14.05
2023-04-28T06:08:41.355Z,15.80
2023-04-28T06:11:08.379Z,13.35
2023-04-28T06:13:35.872Z,14.43
2023-04-28T06:16:03.208Z,12.02
2023-04-28T06:18:32.878Z,11.30
2023-04-28T06:21:00.008Z,9.43
2023-04-28T06:23:27.640Z,10.90
2023-04-28T06:25:54.696Z,11.25
2023-04-28T06:28:21.992Z,11.52
2023-04-28T06:30:48.914Z,9.07
2023-04-28T06:33:16.430Z,9.57
2023-04-28T06:35:43.477Z,10.00
2023-04-28T06:38:10.745Z,12.68
2023-04-28T06:40:37.993Z,11.23
2023-04-28T06:43:05.763Z,12.10
2023-04-28T06:45:32.797Z,10.25
2023-04-28T06:48:00.368Z,10.32
2023-04-28T06:50:27.382Z,10.60
2023-04-28T06:52:54.631Z,10.85
2023-04-28T06:55:21.574Z,8.48
2023-04-28T06:57:48.827Z,7.13
2023-04-28T07:00:16.205Z,13.73
2023-04-28T07:02:43.583Z,7.32
2023-04-28T07:05:10.788Z,7.93
2023-04-28T07:07:40.982Z,11.85
2023-04-28T07:10:08.536Z,7.40
2023-04-28T07:12:35.764Z,6.03
2023-04-28T07:15:02.757Z,5.20
2023-04-28T07:17:30.037Z,3.30
2023-04-28T07:19:57.128Z,2.17
2023-04-28T07:22:24.595Z,3.08
2023-04-28T07:24:51.636Z,4.50
2023-04-28T07:27:18.990Z,6.80
2023-04-28T07:29:45.926Z,4.30
2023-04-28T07:32:13.204Z,4.32
2023-04-28T07:34:40.174Z,3.50
2023-04-28T07:37:08.155Z,4.35
2023-04-28T07:39:35.486Z,2.22
2023-04-28T07:42:03.693Z,4.55
2023-04-28T07:44:31.625Z,5.80
2023-04-28T07:47:03.019Z,3.80
2023-04-28T07:49:30.781Z,6.75
2023-04-28T07:51:58.054Z,2.78
2023-04-28T07:54:25.632Z,4.20
2023-04-28T07:56:53.221Z,3.83
2023-04-28T07:59:20.549Z,3.72
2023-04-28T08:01:47.868Z,5.88
2023-04-28T08:04:15.325Z,3.58
2023-04-28T08:06:43.214Z,2.33
2023-04-28T08:09:10.413Z,4.13
2023-04-28T08:11:37.713Z,3.45
2023-04-28T08:14:05.060Z,2.75
2023-04-28T08:16:33.014Z,4.35
2023-04-28T08:19:00.519Z,4.03
2023-04-28T08:21:28.171Z,3.83
2023-04-28T08:23:55.156Z,3.83
2023-04-28T08:26:22.409Z,3.20
2023-04-28T08:28:49.471Z,5.35
2023-04-28T08:31:17.087Z,3.85
2023-04-28T08:33:45.536Z,4.55
2023-04-28T08:36:14.718Z,6.93
2023-04-28T08:38:42.213Z,4.20
2023-04-28T08:41:09.818Z,4.75
2023-04-28T08:43:37.518Z,6.38
2023-04-28T08:46:08.281Z,5.80
2023-04-28T08:48:41.168Z,4.70
2023-04-28T08:54:08.831Z,4.72
2023-04-28T08:56:34.082Z,4.13
2023-04-28T08:59:05.157Z,6.00
2023-04-28T09:01:32.942Z,3.85
2023-04-28T09:04:04.228Z,3.45
2023-04-28T09:06:35.314Z,3.35
2023-04-28T09:09:21.060Z,3.78
2023-04-28T09:11:58.307Z,4.30
2023-04-28T09:14:26.444Z,5.55
2023-04-28T09:16:53.819Z,8.80
2023-04-28T09:19:21.233Z,4.10
2023-04-28T09:21:59.280Z,5.28
2023-04-28T09:24:39.758Z,5.80
2023-04-28T09:27:10.694Z,4.97
2023-04-28T09:29:38.720Z,5.00
2023-04-28T09:32:23.552Z,4.38
2023-04-28T09:34:53.878Z,6.60
2023-04-28T09:37:23.526Z,4.72
2023-04-28T09:39:51.918Z,5.15
2023-04-28T09:42:35.569Z,4.13
2023-04-28T09:45:10.431Z,5.32
2023-04-28T09:47:46.765Z,5.80
2023-04-28T09:50:17.202Z,5.00
2023-04-28T09:52:56.982Z,6.28
2023-04-28T09:55:25.120Z,6.95
2023-04-28T09:57:54.654Z,7.65
2023-04-28T10:00:22.735Z,4.60
2023-04-28T10:02:51.683Z,4.10
2023-04-28T10:05:19.821Z,6.90
2023-04-28T10:07:47.983Z,5.55
2023-04-28T10:10:15.604Z,5.53
2023-04-28T10:12:44.181Z,5.75
2023-04-28T10:15:13.259Z,4.95
2023-04-28T10:17:40.968Z,5.03
2023-04-28T10:20:08.905Z,4.78
2023-04-28T10:23:17.434Z,4.00
2023-04-28T10:25:49.539Z,3.35
2023-04-28T10:28:17.395Z,5.70
2023-04-28T10:31:14.085Z,5.80
2023-04-28T10:33:42.328Z,4.88
2023-04-28T10:36:09.769Z,4.90
2023-04-28T10:39:11.111Z,6.82
2023-04-28T10:41:38.310Z,4.75
2023-04-28T10:44:30.127Z,6.45
2023-04-28T10:47:09.339Z,4.90
2023-04-28T10:49:58.275Z,4.55
2023-04-28T10:52:37.889Z,5.18
2023-04-28T10:55:27.016Z,5.43
2023-04-28T10:58:16.811Z,8.27
2023-04-28T11:00:47.927Z,5.53
2023-04-28T11:03:42.758Z,3.63
2023-04-28T11:06:26.290Z,3.95
2023-04-28T11:11:25.894Z,4.40
2023-04-28T11:14:20.849Z,4.57
2023-04-28T11:16:51.297Z,5.85
2023-04-28T11:19:32.196Z,5.47
2023-04-28T11:22:01.968Z,7.63
2023-04-28T11:24:30.550Z,6.35
2023-04-28T11:26:58.989Z,4.32
2023-04-28T11:29:39.554Z,3.50
2023-04-28T11:32:08.503Z,8.00
2023-04-28T11:34:36.989Z,5.55
2023-04-28T11:37:06.022Z,7.28
2023-04-28T11:39:34.087Z,7.22
2023-04-28T11:42:09.084Z,8.18
2023-04-28T11:44:36.365Z,4.22
2023-04-28T11:47:05.688Z,4.47
2023-04-28T11:49:42.276Z,7.03
2023-04-28T11:52:11.037Z,4.22
2023-04-28T11:54:38.665Z,5.90
2023-04-28T11:57:06.691Z,5.05
2023-04-28T11:59:35.589Z,5.60
2023-04-28T12:02:07.167Z,4.22
2023-04-28T12:04:44.991Z,7.90
2023-04-28T12:07:15.886Z,8.38
2023-04-28T12:09:45.821Z,8.75
2023-04-28T12:12:40.170Z,7.28
2023-04-28T12:15:15.110Z,6.47
2023-04-28T12:17:42.863Z,4.68
2023-04-28T12:20:31.722Z,3.20
2023-04-28T12:22:58.664Z,6.68
2023-04-28T12:25:26.050Z,6.72
2023-04-28T12:28:07.546Z,5.22
2023-04-28T12:30:42.616Z,6.85
2023-04-28T12:33:27.301Z,4.80
2023-04-28T12:35:56.559Z,4.80
2023-04-28T12:38:24.177Z,4.22
2023-04-28T12:40:52.287Z,4.60
2023-04-28T12:43:19.554Z,11.13
2023-04-28T12:45:46.824Z,4.70
2023-04-28T12:48:13.822Z,6.25
2023-04-28T12:50:41.107Z,6.10
2023-04-28T12:53:08.089Z,5.13
2023-04-28T12:55:35.431Z,5.55
2023-04-28T12:58:02.382Z,8.70
2023-04-28T13:00:30.172Z,4.10
2023-04-28T13:03:00.390Z,4.80
2023-04-28T13:05:27.761Z,9.27
2023-04-28T13:07:54.783Z,4.03
2023-04-28T13:10:23.275Z,4.88
2023-04-28T13:12:50.288Z,6.32
2023-04-28T13:15:17.704Z,4.30
2023-04-28T13:17:46.468Z,4.47
2023-04-28T13:20:14.016Z,5.07
2023-04-28T13:22:42.039Z,9.38
2023-04-28T13:25:10.108Z,10.10
2023-04-28T13:27:37.819Z,5.07
2023-04-28T13:30:06.234Z,6.88
2023-04-28T13:32:33.692Z,5.82
2023-04-28T13:35:01.013Z,8.20
2023-04-28T13:37:27.981Z,4.47
2023-04-28T13:39:55.534Z,5.53
2023-04-28T13:42:22.449Z,5.25
2023-04-28T13:44:50.010Z,7.32
2023-04-28T13:47:17.062Z,4.65
2023-04-28T13:49:44.641Z,6.57
2023-04-28T13:52:11.558Z,6.93
2023-04-28T13:54:38.765Z,8.82
2023-04-28T13:57:05.976Z,9.13
2023-04-28T13:59:34.189Z,7.43
2023-04-28T14:02:01.123Z,7.85
2023-04-28T14:04:28.488Z,5.18
2023-04-28T14:06:55.693Z,6.68
2023-04-28T14:09:23.560Z,6.68
2023-04-28T14:11:50.543Z,12.10
2023-04-28T14:14:17.763Z,6.57
2023-04-28T14:16:45.295Z,6.85
2023-04-28T14:19:17.314Z,5.03
2023-04-28T14:21:44.361Z,7.53
2023-04-28T14:24:11.600Z,5.47
2023-04-28T14:26:38.666Z,7.10
2023-04-28T14:29:06.355Z,5.15
2023-04-28T14:31:34.021Z,6.13
2023-04-28T14:34:01.409Z,4.45
2023-04-28T14:36:28.575Z,4.80
2023-04-28T14:38:55.778Z,7.93
2023-04-28T14:41:22.734Z,7.80
2023-04-28T14:43:50.410Z,6.35
2023-04-28T14:46:19.567Z,5.68
2023-04-28T14:48:47.228Z,7.45
2023-04-28T14:51:14.487Z,7.20
2023-04-28T14:53:42.660Z,7.65
2023-04-28T14:56:18.641Z,5.57
2023-04-28T14:58:49.997Z,6.03
2023-04-28T15:01:17.407Z,6.38
2023-04-28T15:03:45.038Z,10.20
2023-04-28T15:06:12.145Z,7.07
2023-04-28T15:08:40.608Z,7.55
2023-04-28T15:11:07.705Z,5.20
2023-04-28T15:13:35.211Z,5.55
2023-04-28T15:16:03.011Z,7.43
2023-04-28T15:18:30.314Z,7.35
2023-04-28T15:20:57.425Z,6.40
2023-04-28T15:23:24.654Z,5.28
2023-04-28T15:25:54.329Z,6.28
2023-04-28T15:28:22.170Z,6.88
2023-04-28T15:30:49.105Z,8.60
2023-04-28T15:33:19.255Z,5.57
2023-04-28T15:35:46.654Z,8.65
2023-04-28T15:38:13.905Z,7.28
2023-04-28T15:40:41.896Z,6.28
2023-04-28T15:43:09.632Z,5.68
2023-04-28T15:45:37.684Z,6.75
2023-04-28T15:48:06.524Z,5.65
2023-04-28T15:50:33.590Z,8.27
2023-04-28T15:53:01.055Z,7.20
2023-04-28T15:55:28.081Z,6.93
2023-04-28T15:57:56.395Z,7.47
2023-04-28T16:00:23.562Z,9.43
2023-04-28T16:02:50.982Z,8.45
2023-04-28T16:05:18.229Z,9.38
2023-04-28T16:07:45.564Z,8.25
2023-04-28T16:10:14.199Z,6.90
2023-04-28T16:12:42.025Z,6.32
2023-04-28T16:15:10.963Z,8.35
2023-04-28T16:17:39.513Z,7.15
2023-04-28T16:20:08.070Z,10.05
2023-04-28T16:22:39.865Z,6.95
2023-04-28T16:25:07.732Z,9.82
2023-04-28T16:27:36.309Z,9.50
2023-04-28T16:30:07.159Z,9.40
2023-04-28T16:32:36.713Z,8.93
2023-04-28T16:35:06.214Z,9.13
2023-04-28T16:37:33.881Z,8.75
2023-04-28T16:40:01.405Z,9.85
2023-04-28T16:42:28.635Z,11.30
2023-04-28T16:44:55.610Z,13.10
2023-04-28T16:47:23.145Z,8.85
2023-04-28T16:49:50.176Z,9.07
2023-04-28T16:52:17.824Z,9.15
2023-04-28T16:54:44.801Z,10.23
2023-04-28T16:57:12.070Z,11.07
2023-04-28T16:59:39.011Z,8.95
2023-04-28T17:02:06.843Z,7.78
2023-04-28T17:04:34.649Z,8.13
2023-04-28T17:07:05.317Z,11.70
2023-04-28T17:09:33.357Z,9.85
2023-04-28T17:12:01.031Z,15.13
2023-04-28T17:14:28.049Z,9.52
2023-04-28T17:16:55.882Z,11.70
2023-04-28T17:19:23.114Z,10.27
2023-04-28T17:21:52.670Z,10.85
2023-04-28T17:24:19.740Z,10.15
2023-04-28T17:26:47.153Z,10.93
2023-04-28T17:29:14.190Z,13.85
2023-04-28T17:31:41.664Z,15.20
2023-04-28T17:34:08.740Z,12.60
2023-04-28T17:36:36.613Z,15.07
2023-04-28T17:39:04.612Z,11.57
2023-04-28T17:41:32.212Z,24.70
2023-04-28T17:43:59.257Z,13.75
2023-04-28T17:46:27.433Z,10.90
2023-04-28T17:48:54.553Z,14.02
2023-04-28T17:51:23.033Z,13.13
2023-04-28T17:53:49.982Z,13.32
2023-04-28T17:56:17.267Z,14.23
2023-04-28T17:58:44.195Z,14.07
2023-04-28T18:01:11.702Z,10.20
2023-04-28T18:03:39.648Z,16.30
2023-04-28T18:06:08.237Z,14.68
2023-04-28T18:08:36.784Z,12.15
2023-04-28T18:11:04.912Z,12.85
2023-04-28T18:13:33.035Z,17.00
2023-04-28T18:16:00.996Z,12.18
2023-04-28T18:18:30.560Z,12.88
2023-04-28T18:20:59.666Z,21.05
2023-04-28T18:23:27.096Z,15.95
2023-04-28T18:25:54.378Z,13.80
2023-04-28T18:28:21.550Z,15.68
2023-04-28T18:30:48.875Z,15.82
2023-04-28T18:33:19.469Z,16.63
2023-04-28T18:35:48.569Z,18.75
2023-04-28T18:38:15.623Z,15.50
2023-04-28T18:40:43.358Z,14.45
2023-04-28T18:43:10.761Z,14.55
2023-04-28T18:45:41.278Z,20.55
2023-04-28T18:48:10.277Z,13.38
2023-04-28T18:50:37.710Z,15.30
2023-04-28T18:53:05.107Z,12.38
2023-04-28T18:55:33.580Z,16.73
2023-04-28T18:58:02.180Z,12.02
2023-04-28T19:00:30.578Z,18.08
2023-04-28T19:02:57.733Z,11.15
2023-04-28T19:05:25.975Z,12.70
2023-04-28T19:07:52.992Z,14.55
2023-04-28T19:10:20.459Z,11.90
2023-04-28T19:12:47.426Z,16.27
2023-04-28T19:15:14.998Z,13.18
2023-04-28T19:17:41.998Z,12.95
2023-04-28T19:20:09.581Z,13.07
2023-04-28T19:22:38.651Z,15.32
2023-04-28T19:25:06.846Z,13.02
2023-04-28T19:27:39.429Z,13.75
2023-04-28T19:30:08.400Z,13.30
2023-04-28T19:32:35.665Z,14.65
2023-04-28T19:35:04.331Z,14.52
2023-04-28T19:37:32.457Z,15.05
2023-04-28T19:40:00.183Z,16.85
2023-04-28T19:42:27.161Z,10.05
2023-04-28T19:44:56.506Z,12.48
2023-04-28T19:47:27.604Z,19.33
2023-04-28T19:49:55.522Z,10.77
2023-04-28T19:52:22.830Z,10.27
2023-04-28T19:54:51.139Z,11.25
2023-04-28T19:57:19.192Z,13.98
2023-04-28T19:59:47.420Z,11.20
2023-04-28T20:02:17.242Z,11.23
2023-04-28T20:04:44.947Z,13.23
2023-04-28T20:07:12.075Z,12.20
2023-04-28T20:09:39.476Z,10.25
2023-04-28T20:12:08.663Z,13.60
2023-04-28T20:14:37.224Z,14.32
2023-04-28T20:17:05.066Z,14.43
2023-04-28T20:19:32.580Z,14.27
2023-04-28T20:22:03.713Z,12.32
2023-04-28T20:24:34.702Z,10.63
2023-04-28T20:27:02.792Z,15.43
2023-04-28T20:29:34.353Z,14.07
2023-04-28T20:32:02.372Z,12.43
2023-04-28T20:34:30.256Z,13.25
2023-04-28T20:36:59.441Z,9.63
2023-04-28T20:39:27.045Z,13.32
2023-04-28T20:41:54.039Z,12.93
2023-04-28T20:44:21.367Z,11.27
2023-04-28T20:46:48.451Z,24.63
2023-04-28T20:49:15.733Z,17.95
2023-04-28T20:51:45.306Z,13.45
2023-04-28T20:54:13.888Z,21.42
2023-04-28T20:56:42.075Z,14.57
2023-04-28T20:59:09.602Z,13.57
2023-04-28T21:01:36.633Z,10.38
2023-04-28T21:04:03.930Z,11.38
2023-04-28T21:06:31.040Z,12.48
2023-04-28T21:08:58.238Z,15.25
2023-04-28T21:11:25.307Z,9.85
2023-04-28T21:13:52.538Z,12.38
2023-04-28T21:16:21.649Z,12.35
2023-04-28T21:18:49.903Z,13.77
2023-04-28T21:21:17.351Z,12.57
2023-04-28T21:23:45.698Z,14.77
2023-04-28T21:26:12.923Z,14.57
2023-04-28T21:28:41.660Z,12.55
2023-04-28T21:31:08.953Z,11.70
2023-04-28T21:33:36.182Z,11.63
2023-04-28T21:36:09.809Z,13.32
2023-04-28T21:38:37.992Z,12.13
2023-04-28T21:41:05.657Z,13.02
2023-04-28T21:43:32.934Z,14.07
2023-04-28T21:45:59.898Z,11.35
2023-04-28T21:48:27.146Z,10.07
2023-04-28T21:50:54.097Z,11.02
2023-04-28T21:53:21.335Z,12.95
2023-04-28T21:55:48.310Z,16.92
2023-04-28T21:58:15.657Z,14.90
2023-04-28T22:00:47.076Z,11.93
2023-04-28T22:03:15.474Z,14.13
2023-04-28T22:05:43.856Z,16.27
2023-04-28T22:08:11.453Z,10.15
2023-04-28T22:10:38.596Z,11.50
2023-04-28T22:13:06.646Z,14.85
2023-04-28T22:15:33.928Z,15.35
2023-04-28T22:18:01.607Z,14.63
2023-04-28T22:20:28.660Z,11.32
2023-04-28T22:22:57.660Z,14.60
2023-04-28T22:25:25.107Z,13.77
2023-04-28T22:27:52.336Z,13.35
2023-04-28T22:30:19.450Z,12.00
2023-04-28T22:32:47.407Z,14.30
2023-04-28T22:35:16.847Z,14.05
2023-04-28T22:37:44.333Z,14.65
2023-04-28T22:40:11.746Z,12.15
2023-04-28T22:42:40.705Z,14.07
2023-04-28T22:45:09.495Z,14.75
2023-04-28T22:47:37.735Z,13.57
2023-04-28T22:50:06.196Z,13.85
2023-04-28T22:52:34.354Z,14.32
2023-04-28T22:55:01.658Z,18.15
2023-04-28T22:57:28.946Z,13.63
2023-04-28T22:59:56.013Z,18.30
2023-04-28T23:02:23.557Z,18.60
2023-04-28T23:04:51.138Z,10.73
2023-04-28T23:07:18.529Z,12.80
2023-04-28T23:09:45.853Z,13.18
2023-04-28T23:12:13.272Z,15.10
2023-04-28T23:14:40.305Z,14.90
2023-04-28T23:17:07.538Z,15.32
2023-04-28T23:19:39.255Z,12.27
2023-04-28T23:22:09.658Z,11.25
2023-04-28T23:24:38.003Z,13.35
2023-04-28T23:27:06.678Z,8.55
2023-04-28T23:29:35.921Z,15.80
2023-04-28T23:32:04.310Z,10.48
2023-04-28T23:34:31.379Z,17.25
2023-04-28T23:36:58.898Z,11.48
2023-04-28T23:39:26.290Z,17.23
2023-04-28T23:41:54.122Z,15.57
2023-04-28T23:44:21.301Z,12.60
2023-04-28T23:46:49.294Z,13.27
2023-04-28T23:49:16.518Z,9.50
2023-04-28T23:51:43.842Z,17.25
2023-04-28T23:54:11.709Z,14.95
2023-04-28T23:56:39.085Z,11.35
2023-04-28T23:59:06.165Z,12.70
